地図

経路データ

SID SEASON NUMBER BASIN SUBBASIN NAME ISO_TIME NATURE LAT LON WMO_WIND WMO_PRES WMO_AGENCY TRACK_TYPE DIST2LAND LANDFALL IFLAG USA_AGENCY USA_ATCF_ID USA_LAT USA_LON USA_RECORD USA_STATUS USA_WIND USA_PRES USA_SSHS USA_R34_NE USA_R34_SE USA_R34_SW USA_R34_NW USA_R50_NE USA_R50_SE USA_R50_SW USA_R50_NW USA_R64_NE USA_R64_SE USA_R64_SW USA_R64_NW USA_POCI USA_ROCI USA_RMW USA_EYE TOKYO_LAT TOKYO_LON TOKYO_GRADE TOKYO_WIND TOKYO_PRES TOKYO_R50_DIR TOKYO_R50_LONG TOKYO_R50_SHORT TOKYO_R30_DIR TOKYO_R30_LONG TOKYO_R30_SHORT TOKYO_LAND CMA_LAT CMA_LON CMA_CAT CMA_WIND CMA_PRES HKO_LAT HKO_LON HKO_CAT HKO_WIND HKO_PRES NEWDELHI_LAT NEWDELHI_LON NEWDELHI_GRADE NEWDELHI_WIND NEWDELHI_PRES NEWDELHI_CI NEWDELHI_DP NEWDELHI_POCI REUNION_LAT REUNION_LON REUNION_TYPE REUNION_WIND REUNION_PRES REUNION_TNUM REUNION_CI REUNION_RMW REUNION_R34_NE REUNION_R34_SE REUNION_R34_SW REUNION_R34_NW REUNION_R50_NE REUNION_R50_SE REUNION_R50_SW REUNION_R50_NW REUNION_R64_NE REUNION_R64_SE REUNION_R64_SW REUNION_R64_NW BOM_LAT BOM_LON BOM_TYPE BOM_WIND BOM_PRES BOM_TNUM BOM_CI BOM_RMW BOM_R34_NE BOM_R34_SE BOM_R34_SW BOM_R34_NW BOM_R50_NE BOM_R50_SE BOM_R50_SW BOM_R50_NW BOM_R64_NE BOM_R64_SE BOM_R64_SW BOM_R64_NW BOM_ROCI BOM_POCI BOM_EYE BOM_POS_METHOD BOM_PRES_METHOD NADI_LAT NADI_LON NADI_CAT NADI_WIND NADI_PRES WELLINGTON_LAT WELLINGTON_LON WELLINGTON_WIND WELLINGTON_PRES DS824_LAT DS824_LON DS824_STAGE DS824_WIND DS824_PRES TD9636_LAT TD9636_LON TD9636_STAGE TD9636_WIND TD9636_PRES TD9635_LAT TD9635_LON TD9635_WIND TD9635_PRES TD9635_ROCI NEUMANN_LAT NEUMANN_LON NEUMANN_CLASS NEUMANN_WIND NEUMANN_PRES MLC_LAT MLC_LON MLC_CLASS MLC_WIND MLC_PRES USA_GUST BOM_GUST BOM_GUST_PER REUNION_GUST REUNION_GUST_PER USA_SEAHGT USA_SEARAD_NE USA_SEARAD_SE USA_SEARAD_SW USA_SEARAD_NW STORM_SPEED STORM_DIR
1975235N23120 1975 76 WP MM NOT_NAMED 1975-08-23 00:00:00 TS 22.5000 119.800 main 51 51 __O___________ -1 22.5000 119.800 0 999 10 248
1975235N23120 1975 76 WP MM NOT_NAMED 1975-08-23 03:00:00 TS 22.3079 119.282 main 105 105 __P___________ -1 22.3079 119.282 0 1000 10 247
1975235N23120 1975 76 WP MM NOT_NAMED 1975-08-23 06:00:00 TS 22.1000 118.800 main 160 160 __O___________ -1 22.1000 118.800 0 1001 9 242
1975235N23120 1975 76 WP MM NOT_NAMED 1975-08-23 09:00:00 TS 21.8648 118.378 main 206 206 __P___________ -1 21.8648 118.378 0 1001 9 236
1975235N23120 1975 76 WP MM NOT_NAMED 1975-08-23 12:00:00 TS 21.6000 118.000 main 211 204 __O___________ -1 21.6000 118.000 0 19 1001 9 231
1975235N23120 1975 76 WP MM NOT_NAMED 1975-08-23 15:00:00 TS 21.3000 117.628 main 211 211 __P___________ -1 21.3000 117.628 0 19 1001 9 227
1975235N23120 1975 76 WP MM NOT_NAMED 1975-08-23 18:00:00 TS 21.0000 117.300 main 227 227 __O___________ -1 21.0000 117.300 0 19 1001 8 223
1975235N23120 1975 76 WP MM NOT_NAMED 1975-08-23 21:00:00 TS 20.7273 117.058 main 253 251 __P___________ -1 20.7273 117.058 0 19 1001 7 223
1975235N23120 1975 76 WP MM NOT_NAMED 1975-08-24 00:00:00 TS 20.5000 116.800 main 266 262 __O___________ -1 20.5000 116.800 0 19 1001 7 236
1975235N23120 1975 76 WP MM NOT_NAMED 1975-08-24 03:00:00 TS 20.3349 116.445 main 275 271 __P___________ -1 20.3349 116.445 0 21 1001 8 248
1975235N23120 1975 76 WP MM NOT_NAMED 1975-08-24 06:00:00 TS 20.2000 116.000 main 280 277 __O___________ -1 20.2000 116.000 1 23 1001 9 250
1975235N23120 1975 76 WP MM NOT_NAMED 1975-08-24 09:00:00 TS 20.0266 115.547 main 285 275 __P___________ -1 20.0266 115.547 1 23 1001 11 254
1975235N23120 1975 76 WP MM NOT_NAMED 1975-08-24 12:00:00 TS 19.9000 114.900 main 275 246 __O___________ -1 19.9000 114.900 1 23 1001 15 264
1975235N23120 1975 76 WP MM NOT_NAMED 1975-08-24 15:00:00 TS 19.8774 113.955 main 246 201 __P___________ -1 19.8774 113.955 1 23 1000 20 270
1975235N23120 1975 76 WP MM NOT_NAMED 1975-08-24 18:00:00 TS 19.9000 112.800 main 191 71 __O___________ -1 19.9000 112.800 1 23 1000 23 271
1975235N23120 1975 76 WP MM NOT_NAMED 1975-08-24 21:00:00 TS 19.9003 111.550 main 71 0 __P___________ -1 19.9003 111.550 1 23 1000 24 270
1975235N23120 1975 76 WP MM NOT_NAMED 1975-08-25 00:00:00 TS 19.9000 110.300 main 0 0 __O___________ -1 19.9000 110.300 1 23 1000 23 271
1975235N23120 1975 76 WP MM NOT_NAMED 1975-08-25 03:00:00 TS 19.9302 109.115 main 23 23 __P___________ -1 19.9302 109.115 1 26 999 20 270
1975235N23120 1975 76 WP MM NOT_NAMED 1975-08-25 06:00:00 TS 19.9000 108.200 main 76 76 __O___________ -1 19.9000 108.200 1 29 998 13 262
1975235N23120 1975 76 WP MM NOT_NAMED 1975-08-25 09:00:00 TS 19.7511 107.790 main 100 95 __P___________ -1 19.7511 107.790 1 29 998 8 239
1975235N23120 1975 76 WP MM NOT_NAMED 1975-08-25 12:00:00 TS 19.5000 107.500 main 117 115 __O___________ -1 19.5000 107.500 1 29 998 10 234
1975235N23120 1975 76 WP MM NOT_NAMED 1975-08-25 15:00:00 TS 19.1427 106.887 main 117 43 __P___________ -1 19.1427 106.887 1 29 998 14 240
1975235N23120 1975 76 WP MM NOT_NAMED 1975-08-25 18:00:00 TS 18.8000 106.200 main 43 0 __O___________ -1 18.8000 106.200 1 29 998 13 247
1975235N23120 1975 76 WP MM NOT_NAMED 1975-08-25 21:00:00 TS 18.6345 105.616 main 0 0 __P___________ -1 18.6345 105.616 1 24 998 12 255
1975235N23120 1975 76 WP MM NOT_NAMED 1975-08-26 00:00:00 TS 18.5000 105.000 main 0 0 __O___________ -1 18.5000 105.000 0 19 999 13 254
1975235N23120 1975 76 WP MM NOT_NAMED 1975-08-26 03:00:00 TS 18.2808 104.282 main 0 0 __P___________ -1 18.2808 104.282 0 18 999 15 251
1975235N23120 1975 76 WP MM NOT_NAMED 1975-08-26 06:00:00 TS 18.0000 103.500 main 0 __O___________ -1 18.0000 103.500 0 17 1000 16 249

デジタル台風データ・検索

IBTrACS Databaseについて

本データベースは、米国NOAAが公開する1842年以降の世界の熱帯低気圧のベストトラックデータアーカイブInternational Best Track Archive for Climate Stewardship (IBTrACS)を、ウェブで閲覧しやすい形式に変換したものです。

最終更新日:2021-11-26